createdAt,value
2017-09-29T00:01:17.366Z,150.48
2017-09-29T00:03:44.056Z,172.73
2017-09-29T00:06:10.729Z,161.40
2017-09-29T00:08:37.444Z,174.77
2017-09-29T00:11:04.107Z,163.02
2017-09-29T00:13:30.776Z,165.93
2017-09-29T00:15:57.439Z,159.37
2017-09-29T00:18:24.108Z,165.62
2017-09-29T00:20:50.776Z,151.48
2017-09-29T00:23:17.444Z,151.57
2017-09-29T00:25:44.115Z,154.73
2017-09-29T00:28:10.780Z,140.02
2017-09-29T00:30:37.475Z,141.02
2017-09-29T00:33:04.140Z,146.65
2017-09-29T00:35:30.863Z,149.38
2017-09-29T00:37:57.540Z,153.27
2017-09-29T00:40:24.207Z,146.85
2017-09-29T00:42:50.892Z,156.82
2017-09-29T00:45:17.568Z,145.07
2017-09-29T00:47:44.254Z,150.73
2017-09-29T00:50:10.924Z,153.15
2017-09-29T00:52:37.600Z,146.13
2017-09-29T00:55:04.267Z,135.85
2017-09-29T00:57:30.943Z,138.18
2017-09-29T00:59:57.620Z,135.48
2017-09-29T01:02:24.312Z,151.73
2017-09-29T01:04:51.004Z,148.43
2017-09-29T01:07:17.691Z,138.12
2017-09-29T01:09:44.364Z,132.95
2017-09-29T01:12:11.039Z,133.40
2017-09-29T01:14:37.716Z,128.43
2017-09-29T01:17:04.388Z,118.53
2017-09-29T01:19:31.060Z,140.60
2017-09-29T01:21:57.723Z,152.15
2017-09-29T01:24:24.392Z,143.55
2017-09-29T01:26:51.059Z,134.77
2017-09-29T01:29:17.728Z,144.15
2017-09-29T01:31:44.415Z,146.52
2017-09-29T01:34:11.119Z,146.32
2017-09-29T01:36:37.792Z,159.80
2017-09-29T01:39:04.502Z,172.15
2017-09-29T01:41:31.175Z,175.98
2017-09-29T01:43:57.843Z,147.73
2017-09-29T01:46:24.512Z,187.73
2017-09-29T01:48:51.179Z,180.60
2017-09-29T01:51:17.870Z,182.93
2017-09-29T01:53:44.544Z,173.80
2017-09-29T01:56:11.239Z,154.52
2017-09-29T01:58:37.907Z,160.57
2017-09-29T02:01:04.603Z,159.25
2017-09-29T02:03:31.272Z,161.77
2017-09-29T02:05:57.943Z,162.23
2017-09-29T02:08:24.607Z,160.82
2017-09-29T02:10:51.278Z,159.50
2017-09-29T02:13:17.976Z,161.35
2017-09-29T02:15:44.644Z,162.95
2017-09-29T02:18:11.339Z,181.45
2017-09-29T02:20:38.016Z,169.10
2017-09-29T02:23:04.703Z,173.80
2017-09-29T02:25:31.368Z,143.23
2017-09-29T02:27:58.043Z,156.05
2017-09-29T02:30:24.716Z,168.25
2017-09-29T02:32:51.395Z,182.40
2017-09-29T02:35:18.058Z,165.68
2017-09-29T02:37:44.730Z,174.75
2017-09-29T02:40:11.396Z,158.10
2017-09-29T02:42:38.068Z,171.62
2017-09-29T02:45:04.758Z,180.87
2017-09-29T02:47:31.428Z,181.07
2017-09-29T02:49:58.119Z,173.50
2017-09-29T02:52:24.787Z,155.27
2017-09-29T02:54:51.459Z,174.85
2017-09-29T02:57:21.796Z,179.40
2017-09-29T02:59:49.659Z,182.73
2017-09-29T03:02:19.208Z,192.52
2017-09-29T03:04:47.072Z,209.10
2017-09-29T03:07:13.760Z,206.40
2017-09-29T03:09:40.427Z,218.15
2017-09-29T03:12:07.123Z,221.93
2017-09-29T03:14:33.796Z,195.85
2017-09-29T03:17:00.512Z,186.75
2017-09-29T03:19:27.183Z,215.10
2017-09-29T03:21:53.886Z,192.75
2017-09-29T03:24:20.552Z,182.37
2017-09-29T03:26:47.228Z,192.85
2017-09-29T03:29:13.898Z,212.23
2017-09-29T03:31:40.564Z,207.37
2017-09-29T03:34:07.240Z,199.98
2017-09-29T03:36:33.916Z,190.00
2017-09-29T03:39:00.614Z,181.50
2017-09-29T03:41:27.280Z,181.93
2017-09-29T03:43:53.975Z,191.45
2017-09-29T03:46:20.639Z,206.43
2017-09-29T03:48:47.335Z,200.57
2017-09-29T03:51:14.254Z,194.75
2017-09-29T03:53:42.130Z,200.18
2017-09-29T03:56:08.964Z,203.77
2017-09-29T03:58:35.895Z,237.55
2017-09-29T04:01:02.562Z,213.27
2017-09-29T04:03:29.227Z,210.02
2017-09-29T04:05:55.896Z,224.95
2017-09-29T04:08:22.568Z,198.50
2017-09-29T04:10:49.263Z,217.85
2017-09-29T04:13:15.936Z,199.23
2017-09-29T04:15:42.681Z,209.43
2017-09-29T04:18:09.360Z,221.60
2017-09-29T04:20:36.027Z,204.55
2017-09-29T04:23:02.712Z,202.23
2017-09-29T04:25:29.391Z,208.50
2017-09-29T04:27:56.056Z,201.45
2017-09-29T04:30:22.723Z,203.75
2017-09-29T04:32:49.400Z,264.08
2017-09-29T04:35:16.068Z,212.35
2017-09-29T04:37:42.739Z,221.65
2017-09-29T04:40:09.448Z,224.32
2017-09-29T04:42:36.123Z,215.57
2017-09-29T04:45:02.808Z,215.32
2017-09-29T04:47:29.508Z,218.75
2017-09-29T04:49:56.176Z,217.15
2017-09-29T04:52:22.839Z,212.90
2017-09-29T04:54:49.512Z,194.75
2017-09-29T04:57:16.257Z,202.98
2017-09-29T04:59:42.911Z,198.40
2017-09-29T05:02:09.576Z,190.60
2017-09-29T05:04:36.248Z,196.45
2017-09-29T05:07:02.915Z,213.15
2017-09-29T05:09:29.599Z,214.93
2017-09-29T05:11:56.272Z,193.30
2017-09-29T05:14:22.963Z,182.35
2017-09-29T05:16:49.695Z,227.75
2017-09-29T05:19:16.388Z,207.90
2017-09-29T05:21:43.068Z,239.70
2017-09-29T05:24:09.781Z,189.02
2017-09-29T05:26:36.456Z,192.20
2017-09-29T05:29:03.128Z,182.60
2017-09-29T05:31:29.791Z,184.60
2017-09-29T05:33:56.464Z,181.80
2017-09-29T05:36:23.130Z,175.50
2017-09-29T05:38:49.799Z,167.93
2017-09-29T05:41:16.468Z,205.57
2017-09-29T05:43:43.140Z,196.75
2017-09-29T05:46:09.807Z,185.05
2017-09-29T05:48:36.513Z,192.98
2017-09-29T05:51:03.928Z,177.70
2017-09-29T05:53:30.598Z,203.85
2017-09-29T05:55:57.299Z,159.20
2017-09-29T05:58:23.995Z,162.55
2017-09-29T06:00:50.667Z,145.18
2017-09-29T06:03:17.336Z,162.62
2017-09-29T06:05:44.009Z,142.05
2017-09-29T06:08:10.683Z,131.15
2017-09-29T06:10:37.351Z,118.82
2017-09-29T06:13:04.028Z,117.22
2017-09-29T06:15:30.696Z,104.78
2017-09-29T06:17:57.393Z,102.62
2017-09-29T06:20:24.055Z,96.32
2017-09-29T06:22:50.724Z,86.37
2017-09-29T06:25:17.419Z,92.53
2017-09-29T06:27:44.093Z,82.78
2017-09-29T06:30:10.784Z,77.55
2017-09-29T06:32:37.460Z,70.70
2017-09-29T06:35:04.147Z,75.03
2017-09-29T06:37:30.813Z,70.28
2017-09-29T06:39:57.503Z,69.50
2017-09-29T06:42:24.171Z,70.20
2017-09-29T06:44:50.864Z,72.12
2017-09-29T06:47:17.532Z,67.70
2017-09-29T06:49:44.220Z,70.18
2017-09-29T06:52:10.887Z,65.80
2017-09-29T06:54:37.600Z,67.07
2017-09-29T06:57:04.271Z,61.25
2017-09-29T06:59:30.943Z,59.72
2017-09-29T07:01:57.607Z,60.92
2017-09-29T07:04:24.277Z,59.85
2017-09-29T07:06:50.972Z,59.17
2017-09-29T07:09:17.635Z,57.50
2017-09-29T07:11:44.343Z,57.30
2017-09-29T07:14:11.023Z,55.05
2017-09-29T07:16:37.715Z,54.67
2017-09-29T07:19:04.415Z,53.65
2017-09-29T07:21:31.108Z,51.97
2017-09-29T07:23:57.780Z,52.30
2017-09-29T07:26:25.579Z,50.85
2017-09-29T07:28:52.404Z,52.45
2017-09-29T07:31:20.707Z,49.55
2017-09-29T07:33:47.380Z,49.83
2017-09-29T07:36:14.056Z,46.90
2017-09-29T07:38:40.723Z,45.77
2017-09-29T07:41:07.404Z,44.60
2017-09-29T07:43:34.094Z,45.07
2017-09-29T07:46:00.760Z,46.17
2017-09-29T07:48:27.447Z,46.67
2017-09-29T07:50:54.112Z,48.07
2017-09-29T07:53:20.799Z,47.50
2017-09-29T07:55:47.459Z,45.47
2017-09-29T07:58:14.147Z,45.23
2017-09-29T08:00:40.904Z,44.30
2017-09-29T08:03:07.607Z,45.20
2017-09-29T08:05:34.269Z,44.50
2017-09-29T08:08:00.972Z,43.80
2017-09-29T08:10:27.636Z,45.33
2017-09-29T08:12:54.300Z,43.97
2017-09-29T08:15:20.963Z,42.70
2017-09-29T08:17:47.628Z,43.97
2017-09-29T08:20:14.288Z,43.73
2017-09-29T08:22:40.948Z,44.40
2017-09-29T08:25:07.615Z,45.03
2017-09-29T08:27:34.375Z,43.47
2017-09-29T08:30:01.060Z,44.57
2017-09-29T08:32:27.725Z,43.50
2017-09-29T08:34:54.420Z,43.93
2017-09-29T08:37:21.083Z,43.47
2017-09-29T08:39:47.776Z,42.00
2017-09-29T08:42:14.526Z,42.27
2017-09-29T08:44:41.222Z,43.27
2017-09-29T08:47:07.892Z,39.33
2017-09-29T08:49:34.558Z,43.30
2017-09-29T08:52:01.214Z,41.73
2017-09-29T08:54:27.875Z,43.00
2017-09-29T08:56:54.559Z,44.53
2017-09-29T08:59:21.236Z,47.03
2017-09-29T09:01:47.899Z,42.83
2017-09-29T09:04:14.560Z,44.33
2017-09-29T09:06:41.222Z,41.63
2017-09-29T09:09:07.891Z,44.90
2017-09-29T09:11:34.592Z,44.47
2017-09-29T09:14:01.252Z,43.33
2017-09-29T09:16:27.940Z,42.73
2017-09-29T09:18:54.626Z,41.90
2017-09-29T09:21:21.311Z,43.97
2017-09-29T09:23:47.977Z,44.00
2017-09-29T09:26:14.643Z,44.63
2017-09-29T09:28:41.309Z,45.23
2017-09-29T09:31:07.976Z,43.37
2017-09-29T09:33:34.635Z,43.00
2017-09-29T09:36:01.296Z,43.57
2017-09-29T09:38:27.959Z,41.07
2017-09-29T09:40:54.623Z,43.53
2017-09-29T09:43:21.293Z,42.53
2017-09-29T09:45:47.951Z,42.43
2017-09-29T09:48:14.644Z,45.23
2017-09-29T09:50:41.307Z,42.63
2017-09-29T09:53:08.024Z,41.10
2017-09-29T09:55:34.692Z,42.23
2017-09-29T09:58:01.389Z,41.10
2017-09-29T10:00:28.056Z,41.87
2017-09-29T10:02:54.743Z,40.87
2017-09-29T10:05:21.403Z,40.70
2017-09-29T10:07:48.071Z,41.23
2017-09-29T10:10:14.747Z,38.83
2017-09-29T10:12:41.408Z,38.10
2017-09-29T10:15:08.071Z,37.83
2017-09-29T10:17:34.744Z,34.37
2017-09-29T10:20:01.428Z,35.67
2017-09-29T10:22:28.107Z,35.13
2017-09-29T10:24:54.795Z,37.07
2017-09-29T10:27:21.464Z,36.33
2017-09-29T10:29:48.150Z,35.50
2017-09-29T10:32:14.811Z,37.40
2017-09-29T10:34:41.500Z,34.40
2017-09-29T10:37:08.159Z,37.23
2017-09-29T10:39:34.860Z,38.87
2017-09-29T10:42:01.534Z,35.80
2017-09-29T10:44:28.196Z,36.20
2017-09-29T10:46:54.863Z,37.70
2017-09-29T10:49:21.520Z,32.93
2017-09-29T10:51:48.216Z,34.60
2017-09-29T10:54:14.883Z,36.23
2017-09-29T10:56:41.548Z,38.20
2017-09-29T10:59:08.210Z,37.40
2017-09-29T11:01:34.876Z,35.17
2017-09-29T11:04:01.539Z,40.67
2017-09-29T11:06:28.204Z,39.23
2017-09-29T11:08:54.866Z,35.40
2017-09-29T11:11:21.535Z,37.37
2017-09-29T11:13:48.212Z,38.50
2017-09-29T11:16:14.894Z,35.77
2017-09-29T11:18:41.557Z,41.10
2017-09-29T11:21:08.272Z,40.37
2017-09-29T11:23:34.931Z,37.70
2017-09-29T11:26:01.595Z,38.33
2017-09-29T11:28:28.255Z,36.50
2017-09-29T11:30:54.950Z,40.13
2017-09-29T11:33:21.623Z,38.43
2017-09-29T11:35:48.291Z,37.67
2017-09-29T11:38:14.978Z,35.83
2017-09-29T11:40:41.652Z,34.10
2017-09-29T11:43:08.334Z,33.43
2017-09-29T11:45:34.995Z,33.87
2017-09-29T11:48:01.667Z,36.53
2017-09-29T11:50:28.332Z,33.67
2017-09-29T11:52:54.995Z,34.33
2017-09-29T11:55:21.663Z,32.50
2017-09-29T11:57:48.351Z,33.03
2017-09-29T12:00:15.017Z,33.13
2017-09-29T12:02:41.707Z,32.83
2017-09-29T12:05:08.375Z,31.47
2017-09-29T12:07:35.044Z,33.00
2017-09-29T12:10:01.728Z,30.17
2017-09-29T12:12:28.400Z,28.67
2017-09-29T12:14:55.091Z,27.90
2017-09-29T12:17:21.760Z,29.03
2017-09-29T12:19:48.443Z,27.63
2017-09-29T12:22:15.112Z,27.27
2017-09-29T12:24:41.804Z,27.37
2017-09-29T12:27:08.468Z,28.50
2017-09-29T12:29:35.176Z,26.40
2017-09-29T12:32:01.944Z,27.77
2017-09-29T12:34:28.608Z,24.57
2017-09-29T12:36:55.276Z,25.23
2017-09-29T12:39:22.018Z,24.87
2017-09-29T12:41:48.680Z,23.27
2017-09-29T12:44:15.351Z,22.90
2017-09-29T12:46:42.043Z,24.43
2017-09-29T12:49:08.716Z,25.73
2017-09-29T12:51:35.403Z,24.80
2017-09-29T12:54:02.075Z,26.03
2017-09-29T12:56:28.770Z,25.73
2017-09-29T12:58:55.431Z,27.67
2017-09-29T13:01:22.123Z,24.00
2017-09-29T13:03:48.785Z,25.03
2017-09-29T13:06:15.471Z,25.07
2017-09-29T13:08:42.130Z,25.70
2017-09-29T13:11:08.832Z,26.73
2017-09-29T13:13:35.587Z,25.60
2017-09-29T13:16:02.167Z,26.93
2017-09-29T13:18:28.915Z,29.07
2017-09-29T13:20:55.580Z,29.70
2017-09-29T13:23:22.242Z,27.77
2017-09-29T13:25:48.907Z,27.03
2017-09-29T13:28:15.576Z,28.20
2017-09-29T13:30:42.240Z,27.60
2017-09-29T13:33:08.927Z,24.57
2017-09-29T13:35:35.591Z,27.47
2017-09-29T13:38:02.299Z,26.97
2017-09-29T13:40:28.963Z,25.23
2017-09-29T13:42:55.654Z,24.67
2017-09-29T13:45:22.320Z,24.43
2017-09-29T13:47:49.003Z,23.60
2017-09-29T13:50:15.663Z,24.40
2017-09-29T13:52:42.365Z,21.90
2017-09-29T13:55:09.027Z,19.33
2017-09-29T13:57:35.690Z,18.67
2017-09-29T14:00:02.351Z,15.90
2017-09-29T14:02:29.011Z,14.73
2017-09-29T14:04:55.676Z,15.40
2017-09-29T14:07:22.335Z,15.77
2017-09-29T14:09:48.994Z,16.60
2017-09-29T14:12:15.667Z,17.37
2017-09-29T14:14:42.374Z,18.63
2017-09-29T14:17:09.039Z,19.07
2017-09-29T14:19:35.727Z,17.60
2017-09-29T14:22:02.397Z,17.50
2017-09-29T14:24:29.086Z,17.30
2017-09-29T14:26:55.746Z,15.83
2017-09-29T14:29:22.451Z,15.97
2017-09-29T14:31:49.116Z,15.90
2017-09-29T14:34:15.784Z,15.90
2017-09-29T14:36:42.444Z,16.10
2017-09-29T14:39:09.116Z,16.33
2017-09-29T14:41:35.786Z,17.40
2017-09-29T14:44:02.448Z,16.20
2017-09-29T14:46:29.124Z,14.40
2017-09-29T14:48:55.790Z,14.70
2017-09-29T14:51:22.451Z,15.57
2017-09-29T14:53:49.116Z,13.90
2017-09-29T14:56:15.791Z,13.77
2017-09-29T14:58:42.450Z,13.47
2017-09-29T15:01:09.131Z,13.77
2017-09-29T15:03:35.791Z,14.00
2017-09-29T15:06:02.475Z,14.30
2017-09-29T15:08:29.135Z,13.83
2017-09-29T15:10:55.832Z,12.90
2017-09-29T15:13:22.491Z,13.17
2017-09-29T15:15:49.175Z,12.50
2017-09-29T15:18:15.855Z,13.13
2017-09-29T15:20:42.555Z,13.70
2017-09-29T15:23:09.230Z,13.55
2017-09-29T15:25:35.898Z,14.63
2017-09-29T15:28:02.576Z,13.20
2017-09-29T15:30:29.260Z,13.60
2017-09-29T15:32:55.930Z,14.95
2017-09-29T15:35:22.595Z,13.10
2017-09-29T15:37:49.267Z,13.68
2017-09-29T15:40:15.938Z,13.30
2017-09-29T15:42:42.607Z,13.65
2017-09-29T15:45:09.277Z,12.90
2017-09-29T15:47:35.971Z,13.50
2017-09-29T15:50:02.644Z,15.02
2017-09-29T15:52:29.359Z,13.25
2017-09-29T15:54:56.030Z,14.60
2017-09-29T15:57:22.819Z,13.43
2017-09-29T15:59:49.487Z,14.10
2017-09-29T16:02:16.155Z,13.75
2017-09-29T16:04:42.831Z,15.40
2017-09-29T16:07:09.520Z,14.55
2017-09-29T16:09:36.207Z,14.85
2017-09-29T16:12:02.880Z,14.63
2017-09-29T16:14:29.547Z,14.80
2017-09-29T16:16:56.696Z,15.18
2017-09-29T16:19:23.390Z,16.35
2017-09-29T16:21:50.054Z,17.10
2017-09-29T16:24:16.761Z,17.85
2017-09-29T16:26:43.455Z,20.05
2017-09-29T16:29:10.123Z,19.90
2017-09-29T16:31:36.863Z,18.85
2017-09-29T16:34:03.543Z,19.75
2017-09-29T16:36:30.215Z,21.67
2017-09-29T16:38:56.879Z,17.65
2017-09-29T16:41:23.543Z,18.30
2017-09-29T16:43:50.207Z,17.42
2017-09-29T16:46:16.879Z,20.08
2017-09-29T16:48:43.551Z,19.27
2017-09-29T16:51:10.215Z,20.40
2017-09-29T16:53:36.879Z,19.40
2017-09-29T16:56:03.579Z,20.77
2017-09-29T16:58:30.243Z,20.75
2017-09-29T17:00:56.907Z,20.70
2017-09-29T17:03:23.571Z,23.00
2017-09-29T17:05:50.237Z,23.00
2017-09-29T17:08:16.903Z,22.05
2017-09-29T17:10:43.562Z,22.30
2017-09-29T17:13:10.243Z,23.67
2017-09-29T17:15:36.911Z,24.00
2017-09-29T17:18:03.576Z,25.15
2017-09-29T17:20:30.239Z,26.83
2017-09-29T17:22:56.992Z,26.92
2017-09-29T17:25:23.660Z,25.35
2017-09-29T17:27:50.323Z,25.00
2017-09-29T17:30:16.989Z,24.67
2017-09-29T17:32:43.655Z,25.05
2017-09-29T17:35:10.321Z,26.58
2017-09-29T17:37:36.991Z,26.90
2017-09-29T17:40:03.675Z,26.83
2017-09-29T17:42:30.344Z,27.08
2017-09-29T17:44:57.031Z,27.85
2017-09-29T17:47:23.696Z,28.10
2017-09-29T17:49:50.363Z,29.73
2017-09-29T17:52:17.058Z,27.10
2017-09-29T17:54:43.718Z,26.30
2017-09-29T17:57:10.435Z,23.35
2017-09-29T17:59:37.095Z,25.33
2017-09-29T18:02:03.792Z,24.92
2017-09-29T18:04:30.457Z,25.77
2017-09-29T18:06:57.144Z,23.98
2017-09-29T18:09:23.808Z,25.02
2017-09-29T18:11:50.495Z,25.00
2017-09-29T18:14:17.158Z,26.58
2017-09-29T18:16:43.881Z,24.58
2017-09-29T18:19:10.544Z,26.77
2017-09-29T18:21:37.246Z,27.70
2017-09-29T18:24:03.916Z,27.98
2017-09-29T18:26:30.583Z,27.05
2017-09-29T18:28:57.247Z,28.60
2017-09-29T18:31:23.911Z,27.65
2017-09-29T18:33:50.599Z,26.75
2017-09-29T18:36:17.263Z,30.73
2017-09-29T18:38:43.964Z,26.70
2017-09-29T18:41:13.512Z,27.17
2017-09-29T18:43:45.936Z,26.35
2017-09-29T18:46:17.151Z,28.15
2017-09-29T18:48:43.844Z,25.55
2017-09-29T18:51:10.507Z,26.75
2017-09-29T18:53:37.199Z,28.40
2017-09-29T18:56:03.861Z,25.67
2017-09-29T18:58:30.547Z,27.23
2017-09-29T19:00:57.211Z,27.10
2017-09-29T19:03:23.886Z,27.13
2017-09-29T19:05:50.555Z,27.83
2017-09-29T19:08:17.228Z,27.13
2017-09-29T19:10:43.920Z,26.42
2017-09-29T19:13:10.587Z,27.20
2017-09-29T19:15:37.283Z,28.50
2017-09-29T19:18:03.958Z,27.85
2017-09-29T19:20:30.647Z,28.08
2017-09-29T19:22:57.312Z,28.05
2017-09-29T19:25:23.999Z,28.17
2017-09-29T19:27:50.669Z,28.05
2017-09-29T19:30:17.332Z,28.55
2017-09-29T19:32:43.994Z,28.50
2017-09-29T19:35:10.655Z,28.55
2017-09-29T19:37:37.324Z,32.20
2017-09-29T19:40:03.989Z,29.08
2017-09-29T19:42:30.684Z,29.30
2017-09-29T19:44:57.359Z,30.42
2017-09-29T19:47:24.054Z,28.90
2017-09-29T19:49:50.732Z,31.15
2017-09-29T19:52:18.335Z,31.60
2017-09-29T19:54:44.999Z,31.52
2017-09-29T19:57:11.659Z,30.70
2017-09-29T19:59:38.323Z,32.35
2017-09-29T20:02:04.983Z,30.25
2017-09-29T20:04:31.669Z,33.85
2017-09-29T20:06:58.338Z,39.83
2017-09-29T20:09:25.062Z,50.05
2017-09-29T20:11:51.938Z,63.45
2017-09-29T20:14:18.622Z,79.70
2017-09-29T20:16:45.308Z,90.65
2017-09-29T20:19:12.003Z,106.05
2017-09-29T20:21:38.675Z,109.35
2017-09-29T20:24:05.367Z,109.50
2017-09-29T20:26:32.039Z,118.45
2017-09-29T20:28:58.710Z,120.37
2017-09-29T20:31:25.375Z,100.57
2017-09-29T20:33:52.034Z,85.80
2017-09-29T20:36:18.696Z,70.30
2017-09-29T20:38:45.359Z,57.62
2017-09-29T20:41:12.027Z,47.42
2017-09-29T20:43:38.704Z,40.53
2017-09-29T20:46:05.767Z,40.45
2017-09-29T20:48:32.447Z,40.40
2017-09-29T20:50:59.156Z,37.33
2017-09-29T20:53:25.823Z,42.22
2017-09-29T20:55:52.511Z,37.22
2017-09-29T20:58:19.171Z,36.80
2017-09-29T21:00:45.860Z,39.90
2017-09-29T21:03:12.539Z,38.50
2017-09-29T21:05:39.231Z,36.42
2017-09-29T21:08:05.899Z,39.30
2017-09-29T21:10:32.563Z,38.55
2017-09-29T21:12:59.225Z,36.58
2017-09-29T21:15:25.892Z,40.78
2017-09-29T21:17:52.554Z,41.45
2017-09-29T21:20:19.215Z,39.45
2017-09-29T21:22:45.903Z,40.92
2017-09-29T21:25:12.571Z,40.47
2017-09-29T21:27:39.276Z,40.88
2017-09-29T21:30:05.938Z,42.35
2017-09-29T21:32:32.600Z,38.42
2017-09-29T21:34:59.267Z,45.92
2017-09-29T21:37:25.944Z,39.97
2017-09-29T21:39:52.607Z,44.55
2017-09-29T21:42:19.271Z,41.78
2017-09-29T21:44:45.939Z,43.80
2017-09-29T21:47:12.604Z,44.70
2017-09-29T21:49:39.266Z,42.78
2017-09-29T21:52:05.927Z,39.45
2017-09-29T21:54:32.619Z,40.65
2017-09-29T21:56:59.282Z,41.75
2017-09-29T21:59:25.948Z,39.35
2017-09-29T22:01:52.615Z,41.58
2017-09-29T22:04:19.282Z,44.63
2017-09-29T22:06:45.947Z,41.30
2017-09-29T22:09:12.611Z,41.50
2017-09-29T22:11:39.271Z,40.15
2017-09-29T22:14:05.938Z,44.30
2017-09-29T22:16:32.703Z,42.65
2017-09-29T22:18:59.366Z,43.35
2017-09-29T22:21:26.031Z,43.05
2017-09-29T22:23:52.695Z,46.08
2017-09-29T22:26:19.368Z,43.15
2017-09-29T22:28:46.026Z,40.75
2017-09-29T22:31:12.687Z,43.67
2017-09-29T22:33:39.351Z,43.70
2017-09-29T22:36:06.162Z,40.72
2017-09-29T22:38:32.831Z,40.47
2017-09-29T22:40:59.495Z,41.70
2017-09-29T22:43:26.155Z,40.28
2017-09-29T22:45:52.821Z,37.97
2017-09-29T22:48:19.486Z,39.92
2017-09-29T22:50:46.154Z,40.75
2017-09-29T22:53:12.820Z,39.10
2017-09-29T22:55:39.496Z,39.45
2017-09-29T22:58:06.160Z,41.40
2017-09-29T23:00:32.823Z,39.75
2017-09-29T23:02:59.496Z,39.30
2017-09-29T23:05:26.174Z,39.67
2017-09-29T23:07:53.694Z,37.50
2017-09-29T23:10:20.364Z,40.90
2017-09-29T23:12:47.050Z,37.28
2017-09-29T23:15:13.712Z,35.85
2017-09-29T23:17:40.376Z,40.45
2017-09-29T23:20:07.047Z,37.53
2017-09-29T23:22:33.721Z,39.22
2017-09-29T23:25:00.395Z,36.97
2017-09-29T23:27:27.063Z,38.33
2017-09-29T23:29:53.724Z,40.72
2017-09-29T23:32:20.421Z,40.95
2017-09-29T23:34:47.095Z,37.88
2017-09-29T23:37:13.760Z,36.78
2017-09-29T23:39:40.427Z,39.35
2017-09-29T23:42:07.091Z,37.42
2017-09-29T23:44:33.775Z,35.47
2017-09-29T23:47:00.444Z,37.28
2017-09-29T23:49:27.118Z,37.13
2017-09-29T23:51:53.886Z,36.00
2017-09-29T23:54:20.552Z,37.00
2017-09-29T23:56:47.240Z,38.67
2017-09-29T23:59:13.904Z,36.05
